Time;durP1;ratioP1;P1;durP2;ratioP2;P2;SDS_P1;SDS_P2;PMS_P1;PMS_P2;Temp;Humidity;BMP_temperature;BMP_pressure;BME280_temperature;BME280_humidity;BME280_pressure;Samples;Min_cycle;Max_cycle;Signal;HPM_P1;HPM_P2
2024/02/22 00:01:42;;;;;;;;;0.00;0.00;;;;;-144.24;100.00;77316.28;4997472;28;45274;-72
2024/02/22 00:04:08;;;;;;;;;0.00;0.00;;;;;-144.24;100.00;77104.31;4997088;28;47581;-75
2024/02/22 00:06:34;;;;;;;;;0.00;0.00;;;;;-144.24;100.00;76942.81;5014847;28;45458;-76
2024/02/22 00:08:59;;;;;;;;;3.00;0.00;;;;;-144.24;100.00;76809.59;5013903;28;45353;-76
2024/02/22 00:11:24;;;;;;;;;0.00;0.00;;;;;-144.24;100.00;76619.84;5014836;28;45256;-75
2024/02/22 00:13:50;;;;;;;;;0.67;0.00;;;;;-144.24;100.00;76514.91;5016278;28;45751;-74
2024/02/22 00:16:16;;;;;;;;;0.00;0.00;;;;;-144.24;100.00;76401.88;5016405;28;45484;-75
2024/02/22 00:18:41;;;;;;;;;0.00;0.00;;;;;-144.24;100.00;76420.03;5018559;28;45419;-76
2024/02/22 00:21:08;;;;;;;;;1.67;0.00;;;;;-144.24;100.00;76369.59;5016710;28;45597;-76
2024/02/22 00:23:34;;;;;;;;;0.00;0.00;;;;;-144.24;100.00;76196.00;5018417;28;45787;-74
2024/02/22 00:25:59;;;;;;;;;0.00;0.00;;;;;-144.24;100.00;76266.66;5000506;28;45390;-76
2024/02/22 00:28:24;;;;;;;;;0.00;0.00;;;;;-144.24;100.00;76288.84;5017081;28;60716;-72
2024/02/22 00:30:50;;;;;;;;;0.00;0.00;;;;;-144.24;100.00;76381.69;5018449;28;45347;-75
2024/02/22 00:33:15;;;;;;;;;0.00;0.00;;;;;-144.24;100.00;76379.66;5017005;28;69497;-76
2024/02/22 00:35:40;;;;;;;;;0.00;0.00;;;;;-144.24;100.00;76321.13;5017310;28;68072;-76
2024/02/22 00:38:06;;;;;;;;;0.00;0.00;;;;;-144.24;100.00;76272.72;5018190;28;45490;-74
2024/02/22 00:40:32;;;;;;;;;0.00;0.00;;;;;-144.24;100.00;76373.63;5017498;28;59132;-76
2024/02/22 00:42:57;;;;;;;;;0.00;0.00;;;;;-144.24;100.00;76212.16;5017839;28;45725;-74
2024/02/22 00:45:23;;;;;;;;;0.00;0.00;;;;;-144.24;100.00;76145.56;5017690;28;60711;-76
2024/02/22 00:47:48;;;;;;;;;0.00;0.00;;;;;-144.24;100.00;76155.66;5016858;28;67548;-76
2024/02/22 00:50:13;;;;;;;;;0.00;0.00;;;;;-144.24;100.00;75941.72;5016973;28;61318;-75
2024/02/22 00:52:38;;;;;;;;;0.00;0.00;;;;;-144.24;100.00;75917.50;4999404;28;69541;-75
2024/02/22 00:55:04;;;;;;;;;0.00;0.00;;;;;-144.24;100.00;75701.59;5016614;28;68429;-74
2024/02/22 00:57:30;;;;;;;;;0.00;0.00;;;;;-144.24;100.00;75721.75;5018103;28;45406;-75
2024/02/22 00:59:55;;;;;;;;;0.00;0.00;;;;;-144.24;100.00;75584.53;5017524;28;57620;-76
2024/02/22 01:02:21;;;;;;;;;0.00;0.00;;;;;-144.24;100.00;75493.75;4995593;28;73440;-72
2024/02/22 01:04:46;;;;;;;;;0.67;0.00;;;;;-144.24;100.00;75477.59;5017895;28;45301;-78
2024/02/22 01:07:12;;;;;;;;;0.00;0.00;;;;;-144.24;100.00;75312.13;5017560;28;45417;-74
2024/02/22 01:09:37;;;;;;;;;0.00;0.00;;;;;-144.24;100.00;75207.22;5017136;28;45404;-75
2024/02/22 01:12:03;;;;;;;;;0.00;0.00;;;;;-144.24;100.00;74876.31;5015066;28;46878;-76
2024/02/22 01:14:29;;;;;;;;;0.00;0.00;;;;;-144.24;100.00;74733.09;5016127;28;45318;-74
2024/02/22 01:16:54;;;;;;;;;0.00;0.00;;;;;-144.24;100.00;74664.50;4999258;28;45417;-74
2024/02/22 01:19:19;;;;;;;;;0.00;0.00;;;;;-144.24;100.00;74662.47;5017477;28;45381;-75
2024/02/22 01:21:45;;;;;;;;;0.00;0.00;;;;;-144.24;100.00;74517.22;5017032;28;46960;-74
2024/02/22 01:24:11;;;;;;;;;0.00;0.00;;;;;-144.24;100.00;74426.44;5015608;28;45453;-76
2024/02/22 01:26:36;;;;;;;;;0.00;0.00;;;;;-144.24;100.00;74327.59;5016044;28;66173;-74
2024/02/22 01:29:03;;;;;;;;;0.00;0.00;;;;;-144.24;100.00;74125.88;5017058;28;45413;-74
2024/02/22 01:31:29;;;;;;;;;0.00;0.00;;;;;-144.24;100.00;73906.00;5017179;28;45837;-77
2024/02/22 01:33:54;;;;;;;;;0.00;0.00;;;;;-144.24;100.00;73774.91;4999674;28;45426;-74
2024/02/22 01:36:19;;;;;;;;;0.00;0.00;;;;;-144.24;100.00;73611.53;5016698;28;56502;-77
2024/02/22 01:38:45;;;;;;;;;0.00;0.00;;;;;-144.24;100.00;73480.44;5017021;28;58411;-76
2024/02/22 01:41:10;;;;;;;;;0.00;0.00;;;;;-144.24;100.00;73214.22;5016639;28;46449;-76
2024/02/22 01:43:37;;;;;;;;;0.00;0.00;;;;;-144.24;100.00;73034.75;5017245;28;52541;-74
2024/02/22 01:46:02;;;;;;;;;0.00;0.00;;;;;-144.24;100.00;72839.13;5016164;28;45559;-75
2024/02/22 01:48:29;;;;;;;;;0.00;0.00;;;;;-144.24;100.00;72730.25;5015929;28;45366;-75
2024/02/22 01:50:56;;;;;;;;;0.00;0.00;;;;;-144.24;100.00;72403.59;4999232;28;45671;-75
2024/02/22 01:53:23;;;;;;;;;0.00;0.00;;;;;-144.24;100.00;72294.72;5015704;28;45294;-74
2024/02/22 01:55:51;;;;;;;;;0.00;0.00;;;;;-144.24;100.00;72099.16;4999029;28;45428;-77
2024/02/22 01:58:16;;;;;;;;;0.00;0.00;;;;;-144.24;100.00;71847.13;5016334;28;45468;-75
2024/02/22 02:00:42;;;;;;;;;0.00;0.00;;;;;-144.24;100.00;71748.34;5015020;28;49713;-76
2024/02/22 02:03:08;;;;;;;;;0.00;0.00;;;;;-144.24;100.00;71605.22;5012168;28;68564;-74
2024/02/22 02:05:33;;;;;;;;;0.00;0.00;;;;;-144.24;100.00;71482.25;5015763;28;62523;-77
2024/02/22 02:07:59;;;;;;;;;0.00;0.00;;;;;-144.24;100.00;71468.16;5016034;28;67935;-75
2024/02/22 02:10:24;;;;;;;;;0.00;0.00;;;;;-144.24;100.00;71347.19;4997777;28;75411;-74
2024/02/22 02:12:50;;;;;;;;;0.00;0.00;;;;;-144.24;100.00;71274.63;5016558;28;45472;-74
2024/02/22 02:15:15;;;;;;;;;0.00;0.00;;;;;-144.24;100.00;71036.78;5016323;28;45645;-76
2024/02/22 02:17:42;;;;;;;;;0.00;0.00;;;;;-144.24;100.00;70875.53;5014680;28;58921;-77
2024/02/22 02:20:10;;;;;;;;;0.00;0.00;;;;;-144.24;100.00;70823.13;5016614;28;47897;-75
2024/02/22 02:23:17;;;;;;;;;0.00;0.00;;;;;-144.24;100.00;69849.78;4996572;28;46171;-73
2024/02/22 02:25:42;;;;;;;;;0.00;0.00;;;;;-144.24;100.00;70148.00;5001238;28;45306;-75
2024/02/22 02:28:07;;;;;;;;;0.00;0.00;;;;;-144.24;100.00;70357.59;5014890;28;47305;-76
2024/02/22 02:30:33;;;;;;;;;0.00;0.00;;;;;-144.24;100.00;70226.59;4997541;28;68881;-72
2024/02/22 02:32:58;;;;;;;;;0.00;0.00;;;;;-144.24;100.00;70152.03;5015584;28;70654;-74
2024/02/22 02:35:23;;;;;;;;;0.00;0.00;;;;;-144.24;100.00;69781.25;5015392;28;62170;-75
2024/02/22 02:37:49;;;;;;;;;0.00;0.00;;;;;-144.24;100.00;69420.59;5015207;28;62150;-75
2024/02/22 02:40:14;;;;;;;;;0.00;0.00;;;;;-144.24;100.00;69249.34;5014568;28;55595;-76
2024/02/22 02:42:41;;;;;;;;;0.00;0.00;;;;;-144.24;100.00;68914.94;5015197;28;51986;-75
2024/02/22 02:45:07;;;;;;;;;0.00;0.00;;;;;-144.24;100.00;68596.63;5016416;28;45959;-75
2024/02/22 02:47:33;;;;;;;;;0.00;0.00;;;;;-144.24;100.00;68427.44;5016097;28;45607;-74
2024/02/22 02:49:58;;;;;;;;;0.00;0.00;;;;;-144.24;100.00;68290.47;5014505;28;47041;-74
2024/02/22 02:52:23;;;;;;;;;0.00;0.00;;;;;-144.24;100.00;68264.28;5014515;28;68263;-75
2024/02/22 02:54:49;;;;;;;;;0.00;0.00;;;;;-144.24;100.00;68358.94;5015484;28;45444;-76
2024/02/22 02:57:14;;;;;;;;;0.00;0.00;;;;;-144.24;100.00;68228.03;5015166;28;61653;-73
2024/02/22 02:59:39;;;;;;;;;0.00;0.00;;;;;-144.24;100.00;68062.88;4997186;28;69778;-73
2024/02/22 03:02:05;;;;;;;;;0.00;0.00;;;;;-144.24;100.00;68117.25;5011179;28;66577;-75
2024/02/22 03:04:30;;;;;;;;;0.00;0.00;;;;;-144.24;100.00;67998.41;5014291;28;45471;-74
2024/02/22 03:06:55;;;;;;;;;0.00;0.00;;;;;-144.24;100.00;67843.34;5014704;28;67600;-77
2024/02/22 03:09:21;;;;;;;;;0.00;0.00;;;;;-144.24;100.00;67901.75;5014802;28;59681;-75
2024/02/22 03:11:47;;;;;;;;;0.00;0.00;;;;;-144.24;100.00;67825.22;5015187;28;45453;-77
2024/02/22 03:14:12;;;;;;;;;0.00;0.00;;;;;-144.24;100.00;67809.09;5015525;28;45302;-76
2024/02/22 03:16:37;;;;;;;;;0.00;0.00;;;;;-144.24;100.00;67887.66;5015112;28;64393;-76
2024/02/22 03:19:03;;;;;;;;;0.00;0.00;;;;;-144.24;100.00;67780.91;5015588;28;45763;-78
2024/02/22 03:21:29;;;;;;;;;0.00;0.00;;;;;-144.24;100.00;67895.69;5015310;28;45576;-77
2024/02/22 03:23:54;;;;;;;;;0.00;0.00;;;;;-144.24;100.00;67811.13;5015062;28;45290;-77
2024/02/22 03:26:23;;;;;;;;;0.00;0.00;;;;;-144.24;100.00;67752.72;5015411;28;45586;-77
2024/02/22 03:28:48;;;;;;;;;0.00;0.00;;;;;-144.24;100.00;67676.19;5015750;28;45712;-76
2024/02/22 03:31:14;;;;;;;;;0.00;0.00;;;;;-144.24;100.00;67726.53;5015491;28;45512;-76
2024/02/22 03:33:41;;;;;;;;;0.00;0.00;;;;;-144.24;100.00;67605.69;5015185;28;51208;-75
2024/02/22 03:36:07;;;;;;;;;0.67;0.00;;;;;-144.24;100.00;67658.06;5014563;28;45623;-75
2024/02/22 03:38:33;;;;;;;;;0.00;0.00;;;;;-144.24;100.00;67672.16;4997821;28;46507;-75
2024/02/22 03:40:59;;;;;;;;;0.00;0.00;;;;;-144.24;100.00;67535.22;5014859;28;45504;-76
2024/02/22 03:43:24;;;;;;;;;0.00;0.00;;;;;-144.24;100.00;67368.06;5015236;28;45606;-76
2024/02/22 03:45:49;;;;;;;;;0.00;0.00;;;;;-144.24;100.00;67368.06;5013831;28;61957;-76
2024/02/22 03:48:15;;;;;;;;;0.00;0.00;;;;;-144.24;100.00;67215.03;5016414;28;71955;-75
2024/02/22 03:50:43;;;;;;;;;0.00;0.00;;;;;-144.24;100.00;67017.69;5019188;28;45512;-75
2024/02/22 03:53:10;;;;;;;;;0.00;0.00;;;;;-144.24;100.00;66808.28;5018731;28;45477;-75
2024/02/22 03:55:35;;;;;;;;;0.00;0.00;;;;;-144.24;100.00;66824.41;5018948;28;45373;-75
2024/02/22 03:58:01;;;;;;;;;0.00;0.00;;;;;-144.24;100.00;66870.69;5000615;28;45390;-75
2024/02/22 04:00:26;;;;;;;;;0.00;0.00;;;;;-144.24;100.00;66862.66;5017721;28;65606;-74
2024/02/22 04:02:53;;;;;;;;;0.00;0.00;;;;;-144.24;100.00;66900.91;5016621;28;65925;-74
2024/02/22 04:05:18;;;;;;;;;0.00;0.00;;;;;-144.24;100.00;66840.50;5018093;28;45440;-74
2024/02/22 04:07:43;;;;;;;;;0.00;0.00;;;;;-144.24;100.00;66856.59;5018770;28;46090;-75
2024/02/22 04:10:09;;;;;;;;;0.00;0.00;;;;;-144.24;100.00;66910.97;4999027;28;68585;-77
2024/02/22 04:12:35;;;;;;;;;0.00;0.00;;;;;-144.24;100.00;66955.28;5018515;28;45385;-76
2024/02/22 04:15:01;;;;;;;;;0.00;0.00;;;;;-144.24;100.00;66925.06;5018088;28;45966;-75
2024/02/22 04:17:26;;;;;;;;;0.00;0.00;;;;;-144.24;100.00;66822.38;5018039;28;45920;-76
2024/02/22 04:19:52;;;;;;;;;0.00;0.00;;;;;-144.24;100.00;66935.13;5000662;28;45459;-75
2024/02/22 04:22:18;;;;;;;;;0.00;0.00;;;;;-144.24;100.00;66659.28;5018134;28;45586;-74
2024/02/22 04:24:44;;;;;;;;;0.00;0.00;;;;;-144.24;100.00;66719.69;5016469;28;45337;-74
2024/02/22 04:27:09;;;;;;;;;0.00;0.00;;;;;-144.24;100.00;66707.63;5017680;28;46849;-74
2024/02/22 04:29:35;;;;;;;;;0.00;0.00;;;;;-144.24;100.00;66647.22;5017305;28;45596;-74
2024/02/22 04:32:01;;;;;;;;;0.00;0.00;;;;;-144.24;100.00;66693.53;5000307;28;45605;-76
2024/02/22 04:34:27;;;;;;;;;0.00;0.00;;;;;-144.24;100.00;66675.41;5016788;28;61088;-76
2024/02/22 04:36:52;;;;;;;;;0.00;0.00;;;;;-144.24;100.00;66588.81;5017368;28;46704;-77
2024/02/22 04:39:18;;;;;;;;;0.00;0.00;;;;;-144.24;100.00;66615.00;5017859;28;52875;-75
2024/02/22 04:41:44;;;;;;;;;0.00;0.00;;;;;-144.24;100.00;66592.84;5016632;28;68587;-74
2024/02/22 04:44:10;;;;;;;;;0.00;0.00;;;;;-144.24;100.00;66520.38;5018260;28;45467;-75
2024/02/22 04:46:35;;;;;;;;;0.00;0.00;;;;;-144.24;100.00;66522.38;5016925;28;46539;-74
2024/02/22 04:49:04;;;;;;;;;0.00;0.00;;;;;-144.24;100.00;66534.47;4999924;28;45682;-74
2024/02/22 04:51:30;;;;;;;;;0.00;0.00;;;;;-144.24;100.00;66474.06;5017932;28;45668;-74
2024/02/22 04:53:55;;;;;;;;;0.00;0.00;;;;;-144.24;100.00;66474.06;5018290;28;45350;-76
2024/02/22 04:56:21;;;;;;;;;0.67;0.00;;;;;-144.24;100.00;66753.91;5015428;28;46420;-74
2024/02/22 04:58:46;;;;;;;;;0.00;0.00;;;;;-144.24;100.00;66564.66;5016939;28;45427;-77
2024/02/22 05:01:11;;;;;;;;;0.00;0.00;;;;;-144.24;100.00;66743.84;5016890;28;65402;-76
2024/02/22 05:03:37;;;;;;;;;0.00;0.00;;;;;-144.24;100.00;66673.38;5016837;28;64870;-74
2024/02/22 05:06:02;;;;;;;;;0.00;0.00;;;;;-144.24;100.00;66834.47;4998321;28;70386;-76
2024/02/22 05:08:27;;;;;;;;;0.00;0.00;;;;;-144.24;100.00;67436.53;5017446;28;45492;-74
2024/02/22 05:10:53;;;;;;;;;0.00;0.00;;;;;-144.24;100.00;67809.09;5017071;28;64438;-74
2024/02/22 05:13:19;;;;;;;;;0.00;0.00;;;;;-144.24;100.00;68087.03;4998700;28;66660;-74
2024/02/22 05:15:45;;;;;;;;;0.00;0.00;;;;;-144.24;100.00;68365.00;5016969;28;45797;-75
2024/02/22 05:18:11;;;;;;;;;0.00;0.00;;;;;-144.24;100.00;68358.94;5017257;28;45426;-74
2024/02/22 05:20:37;;;;;;;;;1.00;0.00;;;;;-144.24;100.00;68395.22;4999990;28;45663;-74
2024/02/22 05:23:04;;;;;;;;;0.00;0.00;;;;;-144.24;100.00;68356.94;4999232;28;45290;-75
2024/02/22 05:25:29;;;;;;;;;0.00;0.00;;;;;-144.24;100.00;68207.88;5017172;28;45869;-73
2024/02/22 05:27:54;;;;;;;;;0.00;0.00;;;;;-144.24;100.00;68024.59;5015113;28;65966;-75
2024/02/22 05:30:20;;;;;;;;;0.00;0.00;;;;;-144.24;100.00;67784.94;5016378;28;62194;-74
2024/02/22 05:32:45;;;;;;;;;0.00;0.00;;;;;-144.24;100.00;67595.63;4998567;28;68444;-75
2024/02/22 05:35:10;;;;;;;;;0.00;0.00;;;;;-144.24;100.00;67412.38;5015820;28;72348;-75
2024/02/22 05:37:36;;;;;;;;;0.00;0.00;;;;;-144.24;100.00;67303.63;5016659;28;45432;-76
2024/02/22 05:40:04;;;;;;;;;0.00;0.00;;;;;-144.24;100.00;67039.84;5017017;28;45365;-74
2024/02/22 05:42:30;;;;;;;;;0.00;0.00;;;;;-144.24;100.00;66921.03;5017126;28;45487;-74
2024/02/22 05:44:56;;;;;;;;;0.00;0.00;;;;;-144.24;100.00;66731.78;5016546;28;46574;-74
2024/02/22 05:47:21;;;;;;;;;0.00;0.00;;;;;-144.24;100.00;66747.88;5014632;28;72394;-76
2024/02/22 05:49:46;;;;;;;;;0.00;0.00;;;;;-144.24;100.00;66617.00;5015898;28;65981;-74
2024/02/22 05:52:12;;;;;;;;;0.00;0.00;;;;;-144.24;100.00;66498.22;4998786;28;45357;-75
2024/02/22 05:54:41;;;;;;;;;0.00;0.00;;;;;-144.24;100.00;66258.66;4998071;28;70138;-75
2024/02/22 05:57:06;;;;;;;;;0.00;0.00;;;;;-144.24;100.00;66256.63;5016221;28;45380;-75
2024/02/22 05:59:32;;;;;;;;;0.00;0.00;;;;;-144.24;100.00;66212.34;4997762;28;60309;-74
2024/02/22 06:01:57;;;;;;;;;0.00;0.00;;;;;-144.24;100.00;66149.94;5015594;28;67561;-74
2024/02/22 06:04:22;;;;;;;;;0.67;0.00;;;;;-144.24;100.00;65912.41;5015222;28;71575;-75
2024/02/22 06:06:48;;;;;;;;;0.00;0.00;;;;;-144.24;100.00;65789.59;5015437;28;70752;-74
2024/02/22 06:09:13;;;;;;;;;0.00;0.00;;;;;-144.24;100.00;65652.72;5017189;28;45283;-76
2024/02/22 06:11:39;;;;;;;;;0.00;0.00;;;;;-144.24;100.00;65517.88;5014594;28;65815;-74
2024/02/22 06:14:05;;;;;;;;;0.00;0.00;;;;;-144.24;100.00;65354.84;5016527;28;45853;-74
2024/02/22 06:16:30;;;;;;;;;1.00;0.00;;;;;-144.24;100.00;65326.66;4998853;28;46184;-74
2024/02/22 06:18:55;;;;;;;;;0.00;0.00;;;;;-144.24;100.00;65280.34;5015232;28;68111;-76
2024/02/22 06:21:21;;;;;;;;;0.00;0.00;;;;;-144.24;100.00;65234.06;5012273;28;45510;-76
2024/02/22 06:23:46;;;;;;;;;1.00;0.00;;;;;-144.24;100.00;65113.31;5014822;28;67743;-76
2024/02/22 06:26:11;;;;;;;;;0.00;0.00;;;;;-144.24;100.00;64906.03;5015630;28;64031;-74
2024/02/22 06:28:37;;;;;;;;;0.00;0.00;;;;;-144.24;100.00;64608.19;5015806;28;45551;-74
2024/02/22 06:31:03;;;;;;;;;0.00;0.00;;;;;-144.24;100.00;64553.84;5016089;28;45381;-74
2024/02/22 06:33:28;;;;;;;;;1.00;0.00;;;;;-144.24;100.00;64402.91;5014486;28;45924;-75
2024/02/22 06:35:53;;;;;;;;;0.00;0.00;;;;;-144.24;100.00;64320.41;5015658;28;45345;-75
2024/02/22 06:38:19;;;;;;;;;0.00;0.00;;;;;-144.24;100.00;64227.88;5014202;28;66063;-74
2024/02/22 06:40:48;;;;;;;;;0.00;0.00;;;;;-144.24;100.00;64151.41;5014756;28;65807;-74
2024/02/22 06:43:14;;;;;;;;;0.00;0.00;;;;;-144.24;100.00;64080.97;4997184;28;46300;-76
2024/02/22 06:45:40;;;;;;;;;1.00;0.00;;;;;-144.24;100.00;64131.28;5014911;28;45332;-74
2024/02/22 06:48:07;;;;;;;;;0.00;0.00;;;;;-144.24;100.00;63976.34;5016158;28;45464;-74
2024/02/22 06:50:32;;;;;;;;;0.00;0.00;;;;;-144.24;100.00;63817.41;5016205;28;45218;-76
2024/02/22 06:52:58;;;;;;;;;0.00;0.00;;;;;-144.24;100.00;63865.69;5015133;28;63574;-75
2024/02/22 06:55:25;;;;;;;;;0.00;0.00;;;;;-144.24;100.00;63815.38;5015110;28;45603;-75
2024/02/22 06:57:51;;;;;;;;;0.00;0.00;;;;;-144.24;100.00;63636.34;5014088;28;45488;-74
2024/02/22 07:00:17;;;;;;;;;0.00;0.00;;;;;-144.24;100.00;63584.03;5017388;28;45502;-78
2024/02/22 07:02:43;;;;;;;;;0.00;0.00;;;;;-144.24;100.00;63555.84;5012553;28;46428;-74
2024/02/22 07:05:08;;;;;;;;;0.00;0.00;;;;;-144.24;100.00;63539.75;5000257;28;45794;-74
2024/02/22 07:07:34;;;;;;;;;0.00;0.00;;;;;-144.24;100.00;63515.63;4996318;28;45547;-76
2024/02/22 07:09:59;;;;;;;;;0.00;0.00;;;;;-144.24;100.00;63557.88;5015871;28;45297;-75
2024/02/22 07:12:24;;;;;;;;;0.00;0.00;;;;;-144.24;100.00;63710.78;5030548;28;69726;-78
2024/02/22 07:14:50;;;;;;;;;0.00;0.00;;;;;-144.24;100.00;63783.19;4997523;28;67808;-73
2024/02/22 07:17:15;;;;;;;;;0.00;0.00;;;;;-144.24;100.00;63875.75;5016010;28;45452;-76
2024/02/22 07:19:44;;;;;;;;;0.00;0.00;;;;;-144.24;100.00;63817.41;5016485;28;45299;-74
2024/02/22 07:22:09;;;;;;;;;0.00;0.00;;;;;-144.24;100.00;64189.63;5015674;28;45841;-76
2024/02/22 07:24:35;;;;;;;;;0.00;0.00;;;;;-144.24;100.00;64223.84;5023195;28;45448;-74
2024/02/22 07:27:01;;;;;;;;;0.00;0.00;;;;;-144.24;100.00;64445.19;5017219;28;64094;-74
2024/02/22 07:29:27;;;;;;;;;0.00;0.00;;;;;-144.24;100.00;64563.91;5014306;28;45544;-70
2024/02/22 07:31:53;;;;;;;;;0.00;0.00;;;;;-144.24;100.00;64694.72;5015667;28;45839;-71
2024/02/22 07:34:18;;;;;;;;;0.00;0.00;;;;;-144.24;100.00;64984.50;5000881;28;45626;-69
2024/02/22 07:36:44;;;;;;;;;0.00;0.00;;;;;-144.24;100.00;65294.44;5014756;28;60293;-70
2024/02/22 07:39:09;;;;;;;;;0.00;0.00;;;;;-144.24;100.00;65582.28;5012226;28;49612;-72
2024/02/22 07:41:34;;;;;;;;;0.00;0.00;;;;;-144.24;100.00;65850.00;5013330;28;64769;-70
2024/02/22 07:44:00;;;;;;;;;0.00;0.00;;;;;-144.24;100.00;66278.78;5015536;28;54519;-70
2024/02/22 07:46:25;;;;;;;;;1.00;0.00;;;;;-144.24;100.00;66661.31;5005795;28;69492;-69
2024/02/22 07:48:50;;;;;;;;;0.00;0.00;;;;;-144.24;100.00;67100.25;5013506;28;45472;-69
2024/02/22 07:51:16;;;;;;;;;0.00;0.00;;;;;-144.24;100.00;67589.59;5011801;28;45999;-69
2024/02/22 07:53:42;;;;;;;;;0.00;0.00;;;;;-144.24;100.00;68099.13;5012648;28;69837;-71
2024/02/22 07:56:08;;;;;;;;;0.00;0.00;;;;;-144.24;100.00;68618.81;4998169;28;45549;-69
2024/02/22 07:58:49;;;;;;;;;0.00;0.00;;;;;-144.24;100.00;68687.28;5019585;28;45448;-69
2024/02/22 08:01:16;;;;;;;;;1.00;0.00;;;;;-144.24;100.00;69055.94;5013785;28;45674;-69
2024/02/22 08:03:42;;;;;;;;;0.00;0.00;;;;;-144.24;100.00;69392.41;5016060;28;45898;-69
2024/02/22 08:06:09;;;;;;;;;0.00;0.00;;;;;-144.24;100.00;69674.47;5013879;28;45516;-71
2024/02/22 08:08:34;;;;;;;;;0.00;0.00;;;;;-144.24;100.00;69680.53;5015984;28;45600;-72
2024/02/22 08:11:00;;;;;;;;;0.00;0.00;;;;;-144.24;100.00;69783.28;5014534;28;45354;-72
2024/02/22 08:13:25;;;;;;;;;0.00;0.00;;;;;-144.24;100.00;69624.09;5013656;28;73011;-72
2024/02/22 08:15:51;;;;;;;;;0.00;0.00;;;;;-144.24;100.00;69327.94;5013798;28;45571;-71
2024/02/22 08:18:16;;;;;;;;;0.00;0.00;;;;;-144.24;100.00;69106.31;5009649;28;68533;-72
2024/02/22 08:20:41;;;;;;;;;1.00;0.00;;;;;-144.24;100.00;68836.34;5011590;28;69785;-71
2024/02/22 08:23:14;;;;;;;;;0.00;0.00;;;;;-144.24;100.00;68558.38;5013792;28;70887;-72
2024/02/22 08:25:39;;;;;;;;;0.00;0.00;;;;;-144.24;100.00;68076.97;5014942;28;45480;-71
2024/02/22 08:28:05;;;;;;;;;0.00;0.00;;;;;-144.24;100.00;67901.75;5014482;28;46722;-71
2024/02/22 08:30:30;;;;;;;;;0.00;0.00;;;;;-144.24;100.00;67539.25;5014335;28;46533;-72
2024/02/22 08:32:56;;;;;;;;;0.00;0.00;;;;;-144.24;100.00;67351.97;5013310;28;45907;-72
2024/02/22 08:35:22;;;;;;;;;1.00;0.00;;;;;-144.24;100.00;67110.31;5014299;28;47294;-70
2024/02/22 08:37:47;;;;;;;;;0.00;0.00;;;;;-144.24;100.00;66757.94;5011767;28;45584;-71
2024/02/22 08:40:12;;;;;;;;;0.00;0.00;;;;;-144.24;100.00;66526.41;5015657;28;46442;-71
2024/02/22 08:42:38;;;;;;;;;0.00;0.00;;;;;-144.24;100.00;66178.13;5016589;28;45538;-72
2024/02/22 08:45:04;;;;;;;;;0.00;0.00;;;;;-144.24;100.00;65765.44;5016817;28;55372;-71
2024/02/22 08:47:31;;;;;;;;;0.00;0.00;;;;;-144.24;100.00;65517.88;5017008;28;45447;-73
2024/02/22 08:49:58;;;;;;;;;0.00;0.00;;;;;-144.24;100.00;65046.91;5016036;28;45676;-71
2024/02/22 08:52:24;;;;;;;;;0.00;0.00;;;;;-144.24;100.00;64759.09;5016992;28;45480;-72
2024/02/22 08:54:49;;;;;;;;;0.00;0.00;;;;;-144.24;100.00;64431.09;5001951;28;45480;-70
2024/02/22 08:57:14;;;;;;;;;1.00;0.00;;;;;-144.24;100.00;64099.09;5016012;28;61903;-71
2024/02/22 08:59:41;;;;;;;;;0.00;0.00;;;;;-144.24;100.00;63883.78;5016855;28;47445;-70
2024/02/22 09:02:06;;;;;;;;;0.00;0.00;;;;;-144.24;100.00;63276.22;5015892;28;45599;-70
2024/02/22 09:04:31;;;;;;;;;0.00;0.00;;;;;-144.24;100.00;63018.75;5016473;28;45495;-71
2024/02/22 09:06:57;;;;;;;;;1.00;0.00;;;;;-144.24;100.00;62612.44;5016672;28;45412;-70
2024/02/22 09:09:22;;;;;;;;;1.00;0.00;;;;;-144.24;100.00;62387.16;5015906;28;73655;-71
2024/02/22 09:11:48;;;;;;;;;0.00;0.00;;;;;-144.24;100.00;62017.13;5012271;28;45835;-70
2024/02/22 09:14:13;;;;;;;;;0.00;0.00;;;;;-144.24;100.00;61836.13;5016648;28;45412;-72
2024/02/22 09:16:39;;;;;;;;;0.00;0.00;;;;;-144.24;100.00;61411.84;5016463;28;45555;-72
2024/02/22 09:19:05;;;;;;;;;0.00;0.00;;;;;-144.24;100.00;61104.19;5013288;28;46384;-72
2024/02/22 09:21:30;;;;;;;;;0.00;0.00;;;;;-144.24;100.00;60824.75;5014800;28;46165;-71
2024/02/22 09:23:55;;;;;;;;;0.00;0.00;;;;;-144.24;100.00;60525.19;5014889;28;45563;-71
2024/02/22 09:26:22;;;;;;;;;0.00;0.00;;;;;-144.24;100.00;60253.81;5016773;28;45560;-71
2024/02/22 09:28:47;;;;;;;;;0.00;0.00;;;;;-144.24;100.00;59807.59;5015833;28;46794;-72
2024/02/22 09:31:13;;;;;;;;;0.00;0.00;;;;;-144.24;100.00;59582.47;5015042;28;68396;-71
2024/02/22 09:33:40;;;;;;;;;0.00;0.00;;;;;-144.24;100.00;59102.16;5016597;28;45425;-71
2024/02/22 09:36:07;;;;;;;;;0.00;0.00;;;;;-144.24;100.00;58736.44;5016167;28;45677;-72
2024/02/22 09:38:34;;;;;;;;;0.00;0.00;;;;;-144.24;100.00;58382.81;5016071;28;47478;-72
2024/02/22 09:40:59;;;;;;;;;1.00;0.00;;;;;-144.24;100.00;58061.34;5015984;28;45324;-71
2024/02/22 09:43:25;;;;;;;;;0.00;0.00;;;;;-144.24;100.00;57625.41;4983656;28;45444;-70
2024/02/22 09:45:50;;;;;;;;;0.00;0.00;;;;;-144.24;100.00;57161.41;5012769;28;68084;-71
2024/02/22 09:48:15;;;;;;;;;0.00;0.00;;;;;-144.24;100.00;56902.31;5012678;28;70588;-70
2024/02/22 09:50:41;;;;;;;;;0.00;0.00;;;;;-144.24;100.00;56410.25;5013495;28;70088;-71
2024/02/22 09:53:07;;;;;;;;;0.00;0.00;;;;;-144.24;100.00;56207.44;5014814;28;45423;-71
2024/02/22 09:55:33;;;;;;;;;0.00;0.00;;;;;-144.24;100.00;55888.16;5014623;28;45494;-71
2024/02/22 09:57:58;;;;;;;;;0.00;0.00;;;;;-144.24;100.00;55568.91;5012730;28;73989;-71
2024/02/22 10:00:23;;;;;;;;;0.00;0.00;;;;;-144.24;100.00;55452.47;5013487;28;67104;-70
2024/02/22 10:02:49;;;;;;;;;0.00;0.00;;;;;-144.24;100.00;55219.56;5013242;28;45520;-70
2024/02/22 10:05:16;;;;;;;;;0.00;0.00;;;;;-144.24;100.00;54934.50;5011957;28;46942;-71
2024/02/22 10:07:42;;;;;;;;;0.00;0.00;;;;;-144.24;100.00;54583.22;5013821;28;46605;-72
2024/02/22 10:10:08;;;;;;;;;0.00;0.00;;;;;-144.24;100.00;54450.75;5014107;28;45724;-71
2024/02/22 10:12:35;;;;;;;;;0.00;0.00;;;;;-144.24;100.00;54250.03;5012186;28;45527;-71
2024/02/22 10:15:06;;;;;;;;;0.00;0.00;;;;;-144.24;100.00;53816.50;5013097;28;45306;-72
2024/02/22 10:17:31;;;;;;;;;0.00;0.00;;;;;-144.24;100.00;53451.28;5008750;28;46592;-71
2024/02/22 10:20:00;;;;;;;;;0.00;0.00;;;;;-144.24;100.00;53226.53;5012126;28;46965;-71
2024/02/22 10:22:27;;;;;;;;;0.67;0.00;;;;;-144.24;100.00;52883.41;5001649;28;45465;-71
2024/02/22 10:24:54;;;;;;;;;0.00;0.00;;;;;-144.24;100.00;52536.31;5013173;28;45271;-72
2024/02/22 10:27:21;;;;;;;;;0.00;0.00;;;;;-144.24;100.00;52201.28;5014356;28;45847;-71
2024/02/22 10:29:47;;;;;;;;;0.00;0.00;;;;;-144.24;100.00;51772.00;5014259;28;45514;-71
2024/02/22 10:32:18;;;;;;;;;0.00;0.00;;;;;-144.24;100.00;51072.03;5012261;28;45460;-71
2024/02/22 10:34:44;;;;;;;;;0.00;0.00;;;;;-144.24;100.00;50755.19;5013847;28;45398;-72
2024/02/22 10:37:10;;;;;;;;;0.00;0.00;;;;;-144.24;100.00;50253.88;4995120;28;45579;-72
2024/02/22 10:39:38;;;;;;;;;0.00;0.00;;;;;-144.24;100.00;50001.25;5024261;28;45548;-72
2024/02/22 10:42:03;;;;;;;;;0.33;0.00;;;;;-144.24;100.00;49844.84;5013199;28;46541;-71
2024/02/22 10:44:29;;;;;;;;;0.00;0.00;;;;;-144.24;100.00;49431.88;5013675;28;45571;-70
2024/02/22 10:46:54;;;;;;;;;0.00;0.00;;;;;-144.24;100.00;48972.84;5010301;28;69741;-70
2024/02/22 10:49:23;;;;;;;;;0.00;0.00;;;;;-144.24;100.00;48463.75;5012796;28;73253;-69
2024/02/22 10:51:50;;;;;;;;;0.00;0.00;;;;;-144.24;100.00;48235.28;4998207;28;45614;-71
2024/02/22 10:54:16;;;;;;;;;0.00;0.00;;;;;-144.24;100.00;48058.91;4996976;28;45448;-70
2024/02/22 10:56:45;;;;;;;;;2.00;0.00;;;;;-144.24;100.00;47986.78;5013195;28;45745;-70
2024/02/22 10:59:13;;;;;;;;;0.00;0.00;;;;;-144.24;100.00;47539.91;5106722;22;45668;-71
2024/02/22 11:01:41;;;;;;;;;0.00;0.00;;;;;-144.24;100.00;47475.81;5000406;28;45849;-70
2024/02/22 11:04:07;;;;;;;;;0.00;0.00;;;;;-144.24;100.00;47041.03;5010873;28;45574;-72